TCE YMEN-YTYA
Flight info
| Callsign | TCE |
|---|---|
| Flight time | N/A |
| Altitude | 3500 |
| Route | DCT |
| Aircraft | PA31/L-V/N |
Departure
| Time | 2026-04-16 07:08 |
|---|---|
| Airport | Melbourne Essendon Airport (YMEN) |
Arrival
| Time | N/A |
|---|---|
| Airport | Tyabb Airport (YTYA) |
| Time | Latitude | Longitude | Altitude | Speed | Heading |
|---|---|---|---|---|---|
| 2026-04-16 07:03 | -37.72854 | 144.89807 | 281 ft | 0 kts | 6° |
| 2026-04-16 07:04 | -37.72852 | 144.89809 | 281 ft | 2 kts | 39° |
| 2026-04-16 07:05 | -37.72893 | 144.89847 | 281 ft | 9 kts | 167° |
| 2026-04-16 07:05 | -37.72886 | 144.89906 | 281 ft | 12 kts | 95° |
| 2026-04-16 07:05 | -37.72866 | 144.89992 | 281 ft | 16 kts | 4° |
| 2026-04-16 07:05 | -37.72783 | 144.90034 | 281 ft | 12 kts | 88° |
| 2026-04-16 07:06 | -37.72781 | 144.90189 | 281 ft | 24 kts | 89° |
| 2026-04-16 07:06 | -37.72778 | 144.90414 | 281 ft | 26 kts | 97° |
| 2026-04-16 07:06 | -37.72810 | 144.90622 | 281 ft | 21 kts | 100° |
| 2026-04-16 07:06 | -37.72838 | 144.90793 | 281 ft | 20 kts | 102° |
| 2026-04-16 07:07 | -37.72869 | 144.90973 | 281 ft | 19 kts | 102° |
| 2026-04-16 07:07 | -37.72896 | 144.91132 | 281 ft | 20 kts | 101° |
| 2026-04-16 07:07 | -37.72906 | 144.91203 | 281 ft | 17 kts | 100° |
| 2026-04-16 07:07 | -37.72945 | 144.91356 | 281 ft | 20 kts | 130° |
| 2026-04-16 07:08 | -37.73073 | 144.91414 | 281 ft | 19 kts | 234° |
| 2026-04-16 07:08 | -37.73089 | 144.90964 | 402 ft | 79 kts | 270° |
| 2026-04-16 07:08 | -37.73079 | 144.90108 | 774 ft | 110 kts | 269° |
| 2026-04-16 07:08 | -37.73060 | 144.89113 | 1347 ft | 116 kts | 271° |
| 2026-04-16 07:09 | -37.73425 | 144.88225 | 1896 ft | 139 kts | 216° |
| 2026-04-16 07:09 | -37.74453 | 144.88295 | 2352 ft | 171 kts | 161° |
| 2026-04-16 07:09 | -37.75589 | 144.89121 | 2469 ft | 196 kts | 153° |
| 2026-04-16 07:09 | -37.76738 | 144.89964 | 2953 ft | 189 kts | 158° |
| 2026-04-16 07:10 | -37.77927 | 144.90747 | 3033 ft | 207 kts | 161° |
| 2026-04-16 07:10 | -37.79247 | 144.91538 | 3171 ft | 209 kts | 162° |
| 2026-04-16 07:10 | -37.80598 | 144.92325 | 3159 ft | 219 kts | 160° |
| 2026-04-16 07:10 | -37.81894 | 144.93378 | 3100 ft | 232 kts | 140° |
| 2026-04-16 07:11 | -37.82927 | 144.94969 | 3100 ft | 231 kts | 141° |
| 2026-04-16 07:11 | -37.84291 | 144.95944 | 3184 ft | 220 kts | 161° |
| 2026-04-16 07:11 | -37.85664 | 144.96793 | 3268 ft | 220 kts | 160° |
| 2026-04-16 07:11 | -37.87069 | 144.97643 | 3146 ft | 226 kts | 160° |
| 2026-04-16 07:12 | -37.88491 | 144.98537 | 3171 ft | 222 kts | 159° |
| 2026-04-16 07:12 | -37.89807 | 144.99385 | 3116 ft | 207 kts | 158° |
| 2026-04-16 07:12 | -37.91057 | 145.00206 | 3101 ft | 198 kts | 159° |
| 2026-04-16 07:12 | -37.92273 | 145.01012 | 3110 ft | 197 kts | 160° |
| 2026-04-16 07:13 | -37.93474 | 145.01804 | 3121 ft | 193 kts | 159° |
| 2026-04-16 07:13 | -37.94648 | 145.02589 | 3112 ft | 190 kts | 158° |
| 2026-04-16 07:13 | -37.95808 | 145.03374 | 3112 ft | 186 kts | 158° |
| 2026-04-16 07:13 | -37.96866 | 145.04334 | 3103 ft | 194 kts | 138° |
| 2026-04-16 07:14 | -37.97871 | 145.05437 | 3109 ft | 186 kts | 159° |
| 2026-04-16 07:14 | -37.99037 | 145.06017 | 3187 ft | 176 kts | 173° |